sensor_id;sensor_type;location;lat;lon;timestamp;temperature;humidity
37844;DHT22;63793;57.632;18.292;2023-03-20T00:01:26;3.60;99.90
37844;DHT22;63793;57.632;18.292;2023-03-20T00:03:56;3.60;99.90
37844;DHT22;63793;57.632;18.292;2023-03-20T00:06:25;3.60;99.90
37844;DHT22;63793;57.632;18.292;2023-03-20T00:08:54;3.50;99.90
37844;DHT22;63793;57.632;18.292;2023-03-20T00:13:57;3.50;99.90
37844;DHT22;63793;57.632;18.292;2023-03-20T00:16:29;3.50;99.90
37844;DHT22;63793;57.632;18.292;2023-03-20T00:18:57;3.50;99.90
37844;DHT22;63793;57.632;18.292;2023-03-20T00:21:24;3.50;99.90
37844;DHT22;63793;57.632;18.292;2023-03-20T00:23:53;3.50;99.90
37844;DHT22;63793;57.632;18.292;2023-03-20T00:26:24;3.50;99.90
37844;DHT22;63793;57.632;18.292;2023-03-20T00:28:52;3.50;99.90
37844;DHT22;63793;57.632;18.292;2023-03-20T00:31:27;3.40;99.90
37844;DHT22;63793;57.632;18.292;2023-03-20T00:33:58;3.40;99.90
37844;DHT22;63793;57.632;18.292;2023-03-20T00:36:26;3.40;99.90
37844;DHT22;63793;57.632;18.292;2023-03-20T00:38:53;3.40;99.90
37844;DHT22;63793;57.632;18.292;2023-03-20T00:41:59;3.40;99.90
37844;DHT22;63793;57.632;18.292;2023-03-20T00:44:35;3.40;99.90
37844;DHT22;63793;57.632;18.292;2023-03-20T13:38:39;7.40;99.90
37844;DHT22;63793;57.632;18.292;2023-03-20T13:41:09;7.50;99.90
37844;DHT22;63793;57.632;18.292;2023-03-20T13:43:44;7.50;99.90
37844;DHT22;63793;57.632;18.292;2023-03-20T13:46:23;7.60;99.90
37844;DHT22;63793;57.632;18.292;2023-03-20T13:48:53;7.60;99.90
37844;DHT22;63793;57.632;18.292;2023-03-20T13:51:35;7.60;99.90
37844;DHT22;63793;57.632;18.292;2023-03-20T14:05:51;7.80;99.90
37844;DHT22;63793;57.632;18.292;2023-03-20T14:10:54;7.80;99.90
37844;DHT22;63793;57.632;18.292;2023-03-20T14:13:22;7.80;99.90
37844;DHT22;63793;57.632;18.292;2023-03-20T14:15:55;7.80;99.90
37844;DHT22;63793;57.632;18.292;2023-03-20T14:18:24;7.80;99.90
37844;DHT22;63793;57.632;18.292;2023-03-20T14:21:04;7.80;99.90
37844;DHT22;63793;57.632;18.292;2023-03-20T14:26:29;7.80;99.90
37844;DHT22;63793;57.632;18.292;2023-03-20T14:31:39;7.80;99.90
37844;DHT22;63793;57.632;18.292;2023-03-20T14:34:15;7.70;99.90
37844;DHT22;63793;57.632;18.292;2023-03-20T14:47:57;7.60;99.90
37844;DHT22;63793;57.632;18.292;2023-03-20T14:53:14;7.60;99.90
37844;DHT22;63793;57.632;18.292;2023-03-20T15:01:03;7.60;99.90
37844;DHT22;63793;57.632;18.292;2023-03-20T15:03:31;7.50;99.90
37844;DHT22;63793;57.632;18.292;2023-03-20T15:06:02;7.50;99.90
37844;DHT22;63793;57.632;18.292;2023-03-20T15:08:33;7.40;99.90
37844;DHT22;63793;57.632;18.292;2023-03-20T15:11:06;7.30;99.90
37844;DHT22;63793;57.632;18.292;2023-03-20T15:13:35;7.20;99.90
37844;DHT22;63793;57.632;18.292;2023-03-20T15:16:08;7.20;99.90
37844;DHT22;63793;57.632;18.292;2023-03-20T15:18:44;7.10;99.90
37844;DHT22;63793;57.632;18.292;2023-03-20T15:23:41;6.90;99.90
37844;DHT22;63793;57.632;18.292;2023-03-20T15:26:09;6.80;99.90
37844;DHT22;63793;57.632;18.292;2023-03-20T15:28:37;6.80;99.90
37844;DHT22;63793;57.632;18.292;2023-03-20T15:31:05;6.70;99.90
37844;DHT22;63793;57.632;18.292;2023-03-20T15:33:39;6.60;99.90
37844;DHT22;63793;57.632;18.292;2023-03-20T15:36:12;6.50;99.90
37844;DHT22;63793;57.632;18.292;2023-03-20T15:38:43;6.40;99.90
37844;DHT22;63793;57.632;18.292;2023-03-20T15:41:31;6.40;99.90
37844;DHT22;63793;57.632;18.292;2023-03-20T15:44:34;6.40;99.90
37844;DHT22;63793;57.632;18.292;2023-03-20T15:47:18;6.30;99.90
37844;DHT22;63793;57.632;18.292;2023-03-20T15:49:54;6.20;99.90
37844;DHT22;63793;57.632;18.292;2023-03-20T15:52:39;6.20;99.90
37844;DHT22;63793;57.632;18.292;2023-03-20T15:55:15;6.20;99.90
37844;DHT22;63793;57.632;18.292;2023-03-20T15:57:43;6.10;99.90
37844;DHT22;63793;57.632;18.292;2023-03-20T16:00:20;6.00;99.90
37844;DHT22;63793;57.632;18.292;2023-03-20T16:02:49;6.00;99.90
37844;DHT22;63793;57.632;18.292;2023-03-20T16:05:17;6.00;99.90
37844;DHT22;63793;57.632;18.292;2023-03-20T16:07:46;5.90;99.90
37844;DHT22;63793;57.632;18.292;2023-03-20T16:10:53;5.90;99.90
37844;DHT22;63793;57.632;18.292;2023-03-20T16:13:15;5.80;99.90
37844;DHT22;63793;57.632;18.292;2023-03-20T16:15:45;5.80;99.90
37844;DHT22;63793;57.632;18.292;2023-03-20T16:18:15;5.80;99.90
37844;DHT22;63793;57.632;18.292;2023-03-20T16:21:04;5.80;99.90
37844;DHT22;63793;57.632;18.292;2023-03-20T16:23:36;5.80;99.90
37844;DHT22;63793;57.632;18.292;2023-03-20T16:26:07;5.90;99.90
37844;DHT22;63793;57.632;18.292;2023-03-20T16:28:35;5.90;99.90
37844;DHT22;63793;57.632;18.292;2023-03-20T16:31:15;5.90;99.90
37844;DHT22;63793;57.632;18.292;2023-03-20T16:33:43;5.90;99.90
37844;DHT22;63793;57.632;18.292;2023-03-20T16:36:15;5.90;99.90
37844;DHT22;63793;57.632;18.292;2023-03-20T16:38:57;5.90;99.90
37844;DHT22;63793;57.632;18.292;2023-03-20T16:41:28;5.90;99.90
37844;DHT22;63793;57.632;18.292;2023-03-20T16:43:56;5.80;99.90
37844;DHT22;63793;57.632;18.292;2023-03-20T16:46:25;5.80;99.90
37844;DHT22;63793;57.632;18.292;2023-03-20T16:52:07;5.80;99.90
37844;DHT22;63793;57.632;18.292;2023-03-20T16:54:37;5.80;99.90
37844;DHT22;63793;57.632;18.292;2023-03-20T16:57:12;5.80;99.90
37844;DHT22;63793;57.632;18.292;2023-03-20T16:59:40;5.80;99.90
37844;DHT22;63793;57.632;18.292;2023-03-20T17:02:39;5.80;99.90
37844;DHT22;63793;57.632;18.292;2023-03-20T17:05:12;5.80;99.90
37844;DHT22;63793;57.632;18.292;2023-03-20T17:07:40;5.80;99.90
37844;DHT22;63793;57.632;18.292;2023-03-20T17:10:19;5.90;99.90
37844;DHT22;63793;57.632;18.292;2023-03-20T17:12:48;5.90;99.90
37844;DHT22;63793;57.632;18.292;2023-03-20T17:15:22;5.80;99.90
37844;DHT22;63793;57.632;18.292;2023-03-20T17:17:50;5.80;99.90
37844;DHT22;63793;57.632;18.292;2023-03-20T17:20:23;5.90;99.90
37844;DHT22;63793;57.632;18.292;2023-03-20T17:22:50;5.90;99.90
37844;DHT22;63793;57.632;18.292;2023-03-20T17:25:18;5.80;99.90
37844;DHT22;63793;57.632;18.292;2023-03-20T17:27:45;5.80;99.90
37844;DHT22;63793;57.632;18.292;2023-03-20T17:30:19;5.80;99.90
37844;DHT22;63793;57.632;18.292;2023-03-20T17:32:46;5.80;99.90
37844;DHT22;63793;57.632;18.292;2023-03-20T17:35:14;5.80;99.90
37844;DHT22;63793;57.632;18.292;2023-03-20T17:37:41;5.70;99.90
37844;DHT22;63793;57.632;18.292;2023-03-20T17:40:21;5.70;99.90
37844;DHT22;63793;57.632;18.292;2023-03-20T17:42:50;5.70;99.90
37844;DHT22;63793;57.632;18.292;2023-03-20T17:45:17;5.70;99.90
37844;DHT22;63793;57.632;18.292;2023-03-20T17:47:47;5.60;99.90
37844;DHT22;63793;57.632;18.292;2023-03-20T17:50:18;5.60;99.90
37844;DHT22;63793;57.632;18.292;2023-03-20T17:52:46;5.60;99.90
37844;DHT22;63793;57.632;18.292;2023-03-20T17:55:12;5.60;99.90
37844;DHT22;63793;57.632;18.292;2023-03-20T17:57:41;5.50;99.90
37844;DHT22;63793;57.632;18.292;2023-03-20T18:00:27;5.50;99.90
37844;DHT22;63793;57.632;18.292;2023-03-20T18:02:54;5.50;99.90
37844;DHT22;63793;57.632;18.292;2023-03-20T18:05:21;5.50;99.90
37844;DHT22;63793;57.632;18.292;2023-03-20T18:07:47;5.50;99.90
37844;DHT22;63793;57.632;18.292;2023-03-20T18:10:29;5.60;99.90
37844;DHT22;63793;57.632;18.292;2023-03-20T18:12:58;5.70;99.90
37844;DHT22;63793;57.632;18.292;2023-03-20T18:15:25;5.70;99.90
37844;DHT22;63793;57.632;18.292;2023-03-20T18:17:52;5.70;99.90
37844;DHT22;63793;57.632;18.292;2023-03-20T18:22:50;5.70;99.90
37844;DHT22;63793;57.632;18.292;2023-03-20T18:25:17;5.60;99.90
37844;DHT22;63793;57.632;18.292;2023-03-20T18:27:44;5.60;99.90
37844;DHT22;63793;57.632;18.292;2023-03-20T18:30:17;5.50;99.90
37844;DHT22;63793;57.632;18.292;2023-03-20T18:32:44;5.40;99.90
37844;DHT22;63793;57.632;18.292;2023-03-20T18:35:12;5.40;99.90
37844;DHT22;63793;57.632;18.292;2023-03-20T18:37:39;5.30;99.90
37844;DHT22;63793;57.632;18.292;2023-03-20T18:40:27;5.30;99.90
37844;DHT22;63793;57.632;18.292;2023-03-20T18:42:56;5.20;99.90
37844;DHT22;63793;57.632;18.292;2023-03-20T18:45:25;5.20;99.90
37844;DHT22;63793;57.632;18.292;2023-03-20T18:47:53;5.10;99.90
37844;DHT22;63793;57.632;18.292;2023-03-20T18:50:26;5.10;99.90
37844;DHT22;63793;57.632;18.292;2023-03-20T18:52:55;5.00;99.90
37844;DHT22;63793;57.632;18.292;2023-03-20T18:55:24;5.00;99.90
37844;DHT22;63793;57.632;18.292;2023-03-20T18:57:52;5.00;99.90
37844;DHT22;63793;57.632;18.292;2023-03-20T19:00:28;5.00;99.90
37844;DHT22;63793;57.632;18.292;2023-03-20T19:02:55;5.10;99.90
37844;DHT22;63793;57.632;18.292;2023-03-20T19:05:24;5.10;99.90
37844;DHT22;63793;57.632;18.292;2023-03-20T19:07:52;5.10;99.90
37844;DHT22;63793;57.632;18.292;2023-03-20T19:10:24;5.10;99.90
37844;DHT22;63793;57.632;18.292;2023-03-20T19:12:52;5.10;99.90
37844;DHT22;63793;57.632;18.292;2023-03-20T19:15:19;5.10;99.90
37844;DHT22;63793;57.632;18.292;2023-03-20T19:17:46;5.20;99.90
37844;DHT22;63793;57.632;18.292;2023-03-20T19:20:38;5.10;99.90
37844;DHT22;63793;57.632;18.292;2023-03-20T19:23:08;5.10;99.90
37844;DHT22;63793;57.632;18.292;2023-03-20T19:25:36;5.10;99.90
37844;DHT22;63793;57.632;18.292;2023-03-20T19:28:04;5.00;99.90
37844;DHT22;63793;57.632;18.292;2023-03-20T19:32:58;5.00;99.90
37844;DHT22;63793;57.632;18.292;2023-03-20T19:35:27;5.00;99.90
37844;DHT22;63793;57.632;18.292;2023-03-20T19:38:18;5.00;99.90
37844;DHT22;63793;57.632;18.292;2023-03-20T19:40:51;5.00;99.90
37844;DHT22;63793;57.632;18.292;2023-03-20T19:43:20;5.00;99.90
37844;DHT22;63793;57.632;18.292;2023-03-20T19:45:48;5.00;99.90
37844;DHT22;63793;57.632;18.292;2023-03-20T19:48:22;5.00;99.90
37844;DHT22;63793;57.632;18.292;2023-03-20T19:50:49;4.90;99.90
37844;DHT22;63793;57.632;18.292;2023-03-20T19:53:18;4.90;99.90
37844;DHT22;63793;57.632;18.292;2023-03-20T19:55:47;4.90;99.90
37844;DHT22;63793;57.632;18.292;2023-03-20T19:58:14;4.80;99.90
37844;DHT22;63793;57.632;18.292;2023-03-20T20:00:41;4.80;99.90
37844;DHT22;63793;57.632;18.292;2023-03-20T20:03:29;4.90;99.90
37844;DHT22;63793;57.632;18.292;2023-03-20T20:05:56;4.80;99.90
37844;DHT22;63793;57.632;18.292;2023-03-20T20:08:22;4.70;99.90
37844;DHT22;63793;57.632;18.292;2023-03-20T20:11:10;4.70;99.90
37844;DHT22;63793;57.632;18.292;2023-03-20T20:13:41;4.60;99.90
37844;DHT22;63793;57.632;18.292;2023-03-20T20:16:28;4.60;99.90
37844;DHT22;63793;57.632;18.292;2023-03-20T20:18:55;4.60;99.90
37844;DHT22;63793;57.632;18.292;2023-03-20T20:21:22;4.50;99.90
37844;DHT22;63793;57.632;18.292;2023-03-20T20:24:09;4.40;99.90
37844;DHT22;63793;57.632;18.292;2023-03-20T20:26:36;4.30;99.90
37844;DHT22;63793;57.632;18.292;2023-03-20T20:29:13;4.30;99.90
37844;DHT22;63793;57.632;18.292;2023-03-20T20:31:40;4.30;99.90
37844;DHT22;63793;57.632;18.292;2023-03-20T20:34:07;4.20;99.90
37844;DHT22;63793;57.632;18.292;2023-03-20T20:36:54;4.20;99.90
37844;DHT22;63793;57.632;18.292;2023-03-20T20:39:40;4.10;99.90
37844;DHT22;63793;57.632;18.292;2023-03-20T20:42:07;4.00;99.90
37844;DHT22;63793;57.632;18.292;2023-03-20T20:44:34;4.00;99.90
37844;DHT22;63793;57.632;18.292;2023-03-20T20:47:01;3.90;99.90
37844;DHT22;63793;57.632;18.292;2023-03-20T20:49:28;3.80;99.90
37844;DHT22;63793;57.632;18.292;2023-03-20T20:51:55;3.80;99.90
37844;DHT22;63793;57.632;18.292;2023-03-20T20:54:25;3.80;99.90
37844;DHT22;63793;57.632;18.292;2023-03-20T20:56:53;3.80;99.90
37844;DHT22;63793;57.632;18.292;2023-03-20T20:59:21;3.80;99.90
37844;DHT22;63793;57.632;18.292;2023-03-20T21:01:48;3.80;99.90
37844;DHT22;63793;57.632;18.292;2023-03-20T21:04:16;3.80;99.90
37844;DHT22;63793;57.632;18.292;2023-03-20T21:06:43;3.80;99.90
37844;DHT22;63793;57.632;18.292;2023-03-20T21:09:30;3.70;99.90
37844;DHT22;63793;57.632;18.292;2023-03-20T21:11:57;3.60;99.90
37844;DHT22;63793;57.632;18.292;2023-03-20T21:14:24;3.60;99.90
37844;DHT22;63793;57.632;18.292;2023-03-20T21:16:51;3.50;99.90
37844;DHT22;63793;57.632;18.292;2023-03-20T21:19:18;3.40;99.90
37844;DHT22;63793;57.632;18.292;2023-03-20T21:21:45;3.40;99.90
37844;DHT22;63793;57.632;18.292;2023-03-20T21:24:12;3.40;99.90
37844;DHT22;63793;57.632;18.292;2023-03-20T21:27:02;3.40;99.90
37844;DHT22;63793;57.632;18.292;2023-03-20T21:29:29;3.40;99.90
37844;DHT22;63793;57.632;18.292;2023-03-20T21:31:56;3.30;99.90
37844;DHT22;63793;57.632;18.292;2023-03-20T21:34:23;3.30;99.90
37844;DHT22;63793;57.632;18.292;2023-03-20T21:36:50;3.30;99.90
37844;DHT22;63793;57.632;18.292;2023-03-20T21:39:17;3.20;99.90
37844;DHT22;63793;57.632;18.292;2023-03-20T21:41:45;3.20;99.90
37844;DHT22;63793;57.632;18.292;2023-03-20T21:44:12;3.20;99.90
37844;DHT22;63793;57.632;18.292;2023-03-20T21:46:45;3.10;99.90
37844;DHT22;63793;57.632;18.292;2023-03-20T21:49:32;3.10;99.90
37844;DHT22;63793;57.632;18.292;2023-03-20T21:52:19;3.10;99.90
37844;DHT22;63793;57.632;18.292;2023-03-20T21:55:07;3.00;99.90
37844;DHT22;63793;57.632;18.292;2023-03-20T21:57:56;3.00;99.90
37844;DHT22;63793;57.632;18.292;2023-03-20T22:00:43;3.00;99.90
37844;DHT22;63793;57.632;18.292;2023-03-20T22:03:29;2.90;99.90
37844;DHT22;63793;57.632;18.292;2023-03-20T22:06:16;2.90;99.90
37844;DHT22;63793;57.632;18.292;2023-03-20T22:09:04;2.90;99.90
37844;DHT22;63793;57.632;18.292;2023-03-20T22:11:51;2.90;99.90
37844;DHT22;63793;57.632;18.292;2023-03-20T22:14:39;2.90;99.90
37844;DHT22;63793;57.632;18.292;2023-03-20T22:17:25;2.90;99.90
37844;DHT22;63793;57.632;18.292;2023-03-20T22:20:13;2.90;99.90
37844;DHT22;63793;57.632;18.292;2023-03-20T22:22:59;2.90;99.90
37844;DHT22;63793;57.632;18.292;2023-03-20T22:25:58;2.80;99.90
37844;DHT22;63793;57.632;18.292;2023-03-20T22:28:45;2.80;99.90
37844;DHT22;63793;57.632;18.292;2023-03-20T22:31:32;2.70;99.90
37844;DHT22;63793;57.632;18.292;2023-03-20T22:34:19;2.70;99.90
37844;DHT22;63793;57.632;18.292;2023-03-20T22:37:07;2.70;99.90
37844;DHT22;63793;57.632;18.292;2023-03-20T22:39:54;2.70;99.90
37844;DHT22;63793;57.632;18.292;2023-03-20T22:42:41;2.70;99.90
37844;DHT22;63793;57.632;18.292;2023-03-20T22:45:27;2.70;99.90
37844;DHT22;63793;57.632;18.292;2023-03-20T22:48:07;2.70;99.90
37844;DHT22;63793;57.632;18.292;2023-03-20T22:50:36;2.70;99.90
37844;DHT22;63793;57.632;18.292;2023-03-20T22:53:03;2.60;99.90
37844;DHT22;63793;57.632;18.292;2023-03-20T22:55:30;2.60;99.90
37844;DHT22;63793;57.632;18.292;2023-03-20T22:57:57;2.60;99.90
37844;DHT22;63793;57.632;18.292;2023-03-20T23:00:33;2.50;99.90
37844;DHT22;63793;57.632;18.292;2023-03-20T23:03:01;2.50;99.90
37844;DHT22;63793;57.632;18.292;2023-03-20T23:05:48;2.40;99.90
37844;DHT22;63793;57.632;18.292;2023-03-20T23:08:15;2.40;99.90
37844;DHT22;63793;57.632;18.292;2023-03-20T23:10:44;2.40;99.90
37844;DHT22;63793;57.632;18.292;2023-03-20T23:13:11;2.40;99.90
37844;DHT22;63793;57.632;18.292;2023-03-20T23:15:38;2.40;99.90
37844;DHT22;63793;57.632;18.292;2023-03-20T23:18:05;2.40;99.90
37844;DHT22;63793;57.632;18.292;2023-03-20T23:20:32;2.50;99.90
37844;DHT22;63793;57.632;18.292;2023-03-20T23:22:59;2.40;99.90
37844;DHT22;63793;57.632;18.292;2023-03-20T23:25:26;2.40;99.90
37844;DHT22;63793;57.632;18.292;2023-03-20T23:28:06;2.40;99.90
37844;DHT22;63793;57.632;18.292;2023-03-20T23:30:33;2.30;99.90
37844;DHT22;63793;57.632;18.292;2023-03-20T23:33:13;2.30;99.90
37844;DHT22;63793;57.632;18.292;2023-03-20T23:35:41;2.30;99.90
37844;DHT22;63793;57.632;18.292;2023-03-20T23:38:08;2.30;99.90
37844;DHT22;63793;57.632;18.292;2023-03-20T23:40:35;2.30;99.90
37844;DHT22;63793;57.632;18.292;2023-03-20T23:43:02;2.20;99.90
37844;DHT22;63793;57.632;18.292;2023-03-20T23:45:29;2.20;99.90
37844;DHT22;63793;57.632;18.292;2023-03-20T23:47:56;2.10;99.90
37844;DHT22;63793;57.632;18.292;2023-03-20T23:50:23;2.10;99.90
37844;DHT22;63793;57.632;18.292;2023-03-20T23:53:02;2.10;99.90
37844;DHT22;63793;57.632;18.292;2023-03-20T23:55:46;2.00;99.90
37844;DHT22;63793;57.632;18.292;2023-03-20T23:58:14;2.00;99.90
